sensor_id;sensor_type;location;lat;lon;timestamp;P1;P2;P0
57623;PMS7003;43448;52.264;20.644;2023-02-04T00:00:00;12;10;
57623;PMS7003;43448;52.264;20.644;2023-02-04T00:10:00;11;8;
57623;PMS7003;43448;52.264;20.644;2023-02-04T00:20:00;10;8;
57623;PMS7003;43448;52.264;20.644;2023-02-04T00:30:00;12;11;
57623;PMS7003;43448;52.264;20.644;2023-02-04T00:40:00;9;8;
57623;PMS7003;43448;52.264;20.644;2023-02-04T00:50:00;9;9;
57623;PMS7003;43448;52.264;20.644;2023-02-04T01:00:00;11;7;
57623;PMS7003;43448;52.264;20.644;2023-02-04T01:10:00;10;8;
57623;PMS7003;43448;52.264;20.644;2023-02-04T01:20:00;10;8;
57623;PMS7003;43448;52.264;20.644;2023-02-04T01:30:00;9;9;
57623;PMS7003;43448;52.264;20.644;2023-02-04T01:40:00;8;8;
57623;PMS7003;43448;52.264;20.644;2023-02-04T01:50:00;8;7;
57623;PMS7003;43448;52.264;20.644;2023-02-04T02:00:00;7;7;
57623;PMS7003;43448;52.264;20.644;2023-02-04T02:10:00;7;7;
57623;PMS7003;43448;52.264;20.644;2023-02-04T02:20:00;9;7;
57623;PMS7003;43448;52.264;20.644;2023-02-04T02:30:00;10;9;
57623;PMS7003;43448;52.264;20.644;2023-02-04T02:40:00;6;5;
57623;PMS7003;43448;52.264;20.644;2023-02-04T02:50:00;5;4;
57623;PMS7003;43448;52.264;20.644;2023-02-04T03:00:00;8;7;
57623;PMS7003;43448;52.264;20.644;2023-02-04T03:10:00;6;4;
57623;PMS7003;43448;52.264;20.644;2023-02-04T03:20:00;5;5;
57623;PMS7003;43448;52.264;20.644;2023-02-04T03:30:00;7;6;
57623;PMS7003;43448;52.264;20.644;2023-02-04T03:40:00;8;6;
57623;PMS7003;43448;52.264;20.644;2023-02-04T03:50:00;6;6;
57623;PMS7003;43448;52.264;20.644;2023-02-04T04:00:00;4;4;
57623;PMS7003;43448;52.264;20.644;2023-02-04T04:10:00;6;5;
57623;PMS7003;43448;52.264;20.644;2023-02-04T04:20:00;6;3;
57623;PMS7003;43448;52.264;20.644;2023-02-04T04:30:00;5;3;
57623;PMS7003;43448;52.264;20.644;2023-02-04T04:40:00;5;5;
57623;PMS7003;43448;52.264;20.644;2023-02-04T04:50:00;5;5;
57623;PMS7003;43448;52.264;20.644;2023-02-04T05:00:00;6;3;
57623;PMS7003;43448;52.264;20.644;2023-02-04T05:10:00;5;4;
57623;PMS7003;43448;52.264;20.644;2023-02-04T05:20:00;3;3;
57623;PMS7003;43448;52.264;20.644;2023-02-04T05:30:00;5;5;
57623;PMS7003;43448;52.264;20.644;2023-02-04T05:40:00;6;4;
57623;PMS7003;43448;52.264;20.644;2023-02-04T05:50:00;3;3;
57623;PMS7003;43448;52.264;20.644;2023-02-04T06:00:00;5;4;
57623;PMS7003;43448;52.264;20.644;2023-02-04T06:10:00;5;4;
57623;PMS7003;43448;52.264;20.644;2023-02-04T06:20:00;4;4;
57623;PMS7003;43448;52.264;20.644;2023-02-04T06:30:00;4;4;
57623;PMS7003;43448;52.264;20.644;2023-02-04T06:40:00;6;5;
57623;PMS7003;43448;52.264;20.644;2023-02-04T06:50:00;7;3;
57623;PMS7003;43448;52.264;20.644;2023-02-04T07:00:00;4;3;
57623;PMS7003;43448;52.264;20.644;2023-02-04T07:10:00;5;3;
57623;PMS7003;43448;52.264;20.644;2023-02-04T07:20:00;5;4;
57623;PMS7003;43448;52.264;20.644;2023-02-04T07:30:00;3;3;
57623;PMS7003;43448;52.264;20.644;2023-02-04T07:40:00;3;3;
57623;PMS7003;43448;52.264;20.644;2023-02-04T07:50:00;4;2;
57623;PMS7003;43448;52.264;20.644;2023-02-04T08:00:00;3;3;
57623;PMS7003;43448;52.264;20.644;2023-02-04T08:10:00;3;2;
57623;PMS7003;43448;52.264;20.644;2023-02-04T08:20:00;3;3;
57623;PMS7003;43448;52.264;20.644;2023-02-04T08:30:00;4;4;
57623;PMS7003;43448;52.264;20.644;2023-02-04T08:40:00;3;2;
57623;PMS7003;43448;52.264;20.644;2023-02-04T08:50:00;6;3;
57623;PMS7003;43448;52.264;20.644;2023-02-04T09:00:00;3;2;
57623;PMS7003;43448;52.264;20.644;2023-02-04T09:10:00;4;3;
57623;PMS7003;43448;52.264;20.644;2023-02-04T09:20:00;5;3;
57623;PMS7003;43448;52.264;20.644;2023-02-04T09:30:00;3;3;
57623;PMS7003;43448;52.264;20.644;2023-02-04T09:40:00;7;7;
57623;PMS7003;43448;52.264;20.644;2023-02-04T09:50:00;5;4;
57623;PMS7003;43448;52.264;20.644;2023-02-04T10:00:00;4;4;
57623;PMS7003;43448;52.264;20.644;2023-02-04T10:10:00;6;4;
57623;PMS7003;43448;52.264;20.644;2023-02-04T10:20:00;4;4;
57623;PMS7003;43448;52.264;20.644;2023-02-04T10:30:00;4;3;
57623;PMS7003;43448;52.264;20.644;2023-02-04T10:40:00;5;4;
57623;PMS7003;43448;52.264;20.644;2023-02-04T10:50:01;3;3;
57623;PMS7003;43448;52.264;20.644;2023-02-04T11:00:00;7;5;
57623;PMS7003;43448;52.264;20.644;2023-02-04T11:10:00;4;4;
57623;PMS7003;43448;52.264;20.644;2023-02-04T11:20:12;6;5;
57623;PMS7003;43448;52.264;20.644;2023-02-04T11:30:04;8;7;
57623;PMS7003;43448;52.264;20.644;2023-02-04T11:40:00;13;9;
57623;PMS7003;43448;52.264;20.644;2023-02-04T11:50:02;9;7;
57623;PMS7003;43448;52.264;20.644;2023-02-04T12:00:00;11;7;
57623;PMS7003;43448;52.264;20.644;2023-02-04T12:10:09;7;4;
57623;PMS7003;43448;52.264;20.644;2023-02-04T12:20:00;3;3;
57623;PMS7003;43448;52.264;20.644;2023-02-04T12:30:00;8;6;
57623;PMS7003;43448;52.264;20.644;2023-02-04T12:40:00;7;3;
57623;PMS7003;43448;52.264;20.644;2023-02-04T12:50:00;6;5;
57623;PMS7003;43448;52.264;20.644;2023-02-04T13:00:00;7;5;
57623;PMS7003;43448;52.264;20.644;2023-02-04T13:10:00;5;4;
57623;PMS7003;43448;52.264;20.644;2023-02-04T13:20:00;5;4;
57623;PMS7003;43448;52.264;20.644;2023-02-04T13:30:00;3;3;
57623;PMS7003;43448;52.264;20.644;2023-02-04T13:40:00;4;4;
57623;PMS7003;43448;52.264;20.644;2023-02-04T13:50:00;7;4;
57623;PMS7003;43448;52.264;20.644;2023-02-04T14:00:00;11;8;
57623;PMS7003;43448;52.264;20.644;2023-02-04T14:10:00;11;8;
57623;PMS7003;43448;52.264;20.644;2023-02-04T14:20:00;6;6;
57623;PMS7003;43448;52.264;20.644;2023-02-04T14:30:00;6;5;
57623;PMS7003;43448;52.264;20.644;2023-02-04T14:40:00;4;4;
57623;PMS7003;43448;52.264;20.644;2023-02-04T14:50:00;8;5;
57623;PMS7003;43448;52.264;20.644;2023-02-04T15:00:00;10;6;
57623;PMS7003;43448;52.264;20.644;2023-02-04T15:10:00;8;5;
57623;PMS7003;43448;52.264;20.644;2023-02-04T15:20:00;7;6;
57623;PMS7003;43448;52.264;20.644;2023-02-04T15:30:00;8;7;
57623;PMS7003;43448;52.264;20.644;2023-02-04T15:40:00;6;6;
57623;PMS7003;43448;52.264;20.644;2023-02-04T15:50:00;6;5;
57623;PMS7003;43448;52.264;20.644;2023-02-04T16:00:00;7;7;
57623;PMS7003;43448;52.264;20.644;2023-02-04T16:10:00;6;4;
57623;PMS7003;43448;52.264;20.644;2023-02-04T16:20:00;7;5;
57623;PMS7003;43448;52.264;20.644;2023-02-04T16:30:00;7;6;
57623;PMS7003;43448;52.264;20.644;2023-02-04T16:40:00;8;7;
57623;PMS7003;43448;52.264;20.644;2023-02-04T16:50:00;6;5;
57623;PMS7003;43448;52.264;20.644;2023-02-04T17:00:00;7;6;
57623;PMS7003;43448;52.264;20.644;2023-02-04T17:10:00;7;5;
57623;PMS7003;43448;52.264;20.644;2023-02-04T17:20:00;10;7;
57623;PMS7003;43448;52.264;20.644;2023-02-04T17:30:00;5;5;
57623;PMS7003;43448;52.264;20.644;2023-02-04T17:40:00;6;5;
57623;PMS7003;43448;52.264;20.644;2023-02-04T17:50:00;10;7;
57623;PMS7003;43448;52.264;20.644;2023-02-04T18:00:00;9;9;
57623;PMS7003;43448;52.264;20.644;2023-02-04T18:10:03;9;8;
57623;PMS7003;43448;52.264;20.644;2023-02-04T18:20:00;13;9;
57623;PMS7003;43448;52.264;20.644;2023-02-04T18:30:00;11;9;
57623;PMS7003;43448;52.264;20.644;2023-02-04T18:40:18;13;12;
57623;PMS7003;43448;52.264;20.644;2023-02-04T18:50:20;12;12;
57623;PMS7003;43448;52.264;20.644;2023-02-04T19:00:11;18;12;
57623;PMS7003;43448;52.264;20.644;2023-02-04T19:10:02;15;12;
57623;PMS7003;43448;52.264;20.644;2023-02-04T19:20:02;14;12;
57623;PMS7003;43448;52.264;20.644;2023-02-04T19:30:00;13;10;
57623;PMS7003;43448;52.264;20.644;2023-02-04T19:40:00;12;11;
57623;PMS7003;43448;52.264;20.644;2023-02-04T19:50:02;13;11;
57623;PMS7003;43448;52.264;20.644;2023-02-04T20:00:00;14;10;
57623;PMS7003;43448;52.264;20.644;2023-02-04T20:10:01;9;9;
57623;PMS7003;43448;52.264;20.644;2023-02-04T20:20:09;15;11;
57623;PMS7003;43448;52.264;20.644;2023-02-04T20:40:00;12;9;
57623;PMS7003;43448;52.264;20.644;2023-02-04T20:50:00;10;9;
57623;PMS7003;43448;52.264;20.644;2023-02-04T21:00:03;15;10;
57623;PMS7003;43448;52.264;20.644;2023-02-04T21:10:00;15;12;
57623;PMS7003;43448;52.264;20.644;2023-02-04T21:20:00;12;10;
57623;PMS7003;43448;52.264;20.644;2023-02-04T21:30:00;14;9;
57623;PMS7003;43448;52.264;20.644;2023-02-04T21:40:00;12;10;
57623;PMS7003;43448;52.264;20.644;2023-02-04T21:50:00;11;9;
57623;PMS7003;43448;52.264;20.644;2023-02-04T22:00:00;13;9;
57623;PMS7003;43448;52.264;20.644;2023-02-04T22:10:01;10;8;
57623;PMS7003;43448;52.264;20.644;2023-02-04T22:20:00;10;10;
57623;PMS7003;43448;52.264;20.644;2023-02-04T22:30:00;12;9;
57623;PMS7003;43448;52.264;20.644;2023-02-04T22:40:00;12;9;
57623;PMS7003;43448;52.264;20.644;2023-02-04T22:50:00;11;8;
57623;PMS7003;43448;52.264;20.644;2023-02-04T23:00:00;10;9;
57623;PMS7003;43448;52.264;20.644;2023-02-04T23:10:00;10;8;
57623;PMS7003;43448;52.264;20.644;2023-02-04T23:20:00;10;9;
57623;PMS7003;43448;52.264;20.644;2023-02-04T23:30:00;10;8;
57623;PMS7003;43448;52.264;20.644;2023-02-04T23:40:00;7;7;
57623;PMS7003;43448;52.264;20.644;2023-02-04T23:50:00;7;7;
